createdAt,value
2019-03-28T00:01:28.645Z,11.13
2019-03-28T00:06:45.432Z,6.77
2019-03-28T00:12:01.955Z,6.67
2019-03-28T00:17:18.357Z,4.97
2019-03-28T00:22:48.938Z,6.03
2019-03-28T00:28:05.774Z,8.87
2019-03-28T00:33:22.406Z,7.37
2019-03-28T00:38:39.107Z,7.50
2019-03-28T00:43:55.263Z,5.90
2019-03-28T00:49:11.847Z,8.13
2019-03-28T00:54:28.325Z,4.70
2019-03-28T00:59:44.995Z,8.93
2019-03-28T01:05:01.788Z,7.47
2019-03-28T01:10:18.448Z,6.73
2019-03-28T01:15:34.768Z,8.93
2019-03-28T01:20:51.272Z,4.33
2019-03-28T01:26:08.641Z,5.27
2019-03-28T01:31:25.159Z,7.20
2019-03-28T01:36:41.770Z,5.27
2019-03-28T01:41:57.781Z,9.27
2019-03-28T01:47:14.273Z,5.47
2019-03-28T01:52:30.722Z,7.77
2019-03-28T01:57:47.520Z,7.70
2019-03-28T02:03:04.206Z,9.50
2019-03-28T02:08:20.766Z,8.33
2019-03-28T02:13:37.370Z,6.40
2019-03-28T02:18:54.349Z,6.73
2019-03-28T02:24:10.639Z,8.33
2019-03-28T02:29:27.183Z,6.57
2019-03-28T02:34:45.751Z,7.97
2019-03-28T02:40:02.421Z,6.47
2019-03-28T02:45:19.016Z,8.00
2019-03-28T02:50:35.641Z,7.40
2019-03-28T02:55:52.355Z,5.27
2019-03-28T03:01:08.809Z,6.53
2019-03-28T03:06:25.142Z,6.67
2019-03-28T03:11:42.969Z,7.57
2019-03-28T03:16:59.411Z,8.13
2019-03-28T03:22:15.714Z,5.63
2019-03-28T03:27:32.395Z,6.30
2019-03-28T03:32:49.168Z,6.73
2019-03-28T03:38:05.545Z,6.07
2019-03-28T03:43:23.065Z,5.93
2019-03-28T03:48:40.258Z,9.57
2019-03-28T03:53:57.014Z,8.27
2019-03-28T03:59:13.743Z,6.30
2019-03-28T04:04:30.413Z,8.13
2019-03-28T04:09:47.056Z,5.27
2019-03-28T04:15:03.587Z,8.20
2019-03-28T04:20:19.928Z,6.57
2019-03-28T04:25:36.682Z,6.93
2019-03-28T04:30:53.332Z,10.33
2019-03-28T04:36:09.905Z,6.27
2019-03-28T04:41:26.641Z,7.37
2019-03-28T04:46:43.063Z,7.20
2019-03-28T04:51:59.318Z,8.70
2019-03-28T04:57:15.919Z,5.03
2019-03-28T05:02:34.398Z,9.30
2019-03-28T05:07:51.041Z,7.60
2019-03-28T05:13:07.670Z,10.70
2019-03-28T05:18:24.119Z,6.47
2019-03-28T05:23:41.907Z,7.80
2019-03-28T05:28:59.402Z,8.13
2019-03-28T05:34:17.110Z,7.87
2019-03-28T05:39:33.590Z,9.07
2019-03-28T05:44:50.722Z,10.37
2019-03-28T05:50:07.765Z,6.27
2019-03-28T05:55:24.525Z,7.00
2019-03-28T06:00:41.324Z,9.20
2019-03-28T06:05:57.597Z,9.57
2019-03-28T06:11:14.127Z,8.70
2019-03-28T06:16:30.894Z,7.63
2019-03-28T06:21:47.746Z,6.67
2019-03-28T06:27:04.222Z,6.37
2019-03-28T06:32:20.918Z,7.57
2019-03-28T06:37:37.338Z,8.13
2019-03-28T06:42:54.102Z,7.73
2019-03-28T06:48:10.519Z,7.07
2019-03-28T06:53:27.303Z,8.20
2019-03-28T06:58:43.637Z,9.10
2019-03-28T07:04:00.165Z,6.43
2019-03-28T07:09:16.526Z,6.37
2019-03-28T07:14:33.313Z,6.60
2019-03-28T07:19:50.065Z,7.37
2019-03-28T07:25:06.957Z,5.83
2019-03-28T07:30:23.421Z,8.97
2019-03-28T07:35:39.941Z,9.53
2019-03-28T07:40:56.480Z,9.63
2019-03-28T07:46:13.253Z,7.67
2019-03-28T07:51:29.602Z,10.30
2019-03-28T07:56:46.009Z,10.13
2019-03-28T08:02:04.155Z,9.30
2019-03-28T08:07:21.005Z,5.87
2019-03-28T08:12:37.747Z,6.77
2019-03-28T08:17:54.413Z,7.77
2019-03-28T08:23:10.871Z,13.40
2019-03-28T08:28:27.490Z,7.73
2019-03-28T08:33:46.252Z,7.97
2019-03-28T08:39:03.205Z,6.13
2019-03-28T08:44:22.839Z,9.73
2019-03-28T08:49:39.587Z,5.73
2019-03-28T08:54:56.267Z,6.40
2019-03-28T09:00:16.433Z,4.00
2019-03-28T09:05:30.968Z,4.50
2019-03-28T09:10:47.462Z,5.00
2019-03-28T09:16:03.822Z,6.33
2019-03-28T09:21:20.360Z,7.30
2019-03-28T09:26:37.163Z,8.07
2019-03-28T09:31:54.134Z,8.30
2019-03-28T09:37:10.679Z,10.07
2019-03-28T09:42:27.119Z,7.47
2019-03-28T09:47:43.931Z,5.77
2019-03-28T09:53:00.658Z,4.90
2019-03-28T09:58:17.548Z,7.37
2019-03-28T10:03:33.707Z,6.73
2019-03-28T10:08:51.259Z,9.20
2019-03-28T10:14:08.965Z,6.03
2019-03-28T10:19:25.329Z,8.37
2019-03-28T10:24:42.089Z,7.37
2019-03-28T10:29:58.720Z,8.50
2019-03-28T10:35:28.207Z,5.90
2019-03-28T10:40:44.627Z,6.90
2019-03-28T10:46:00.885Z,7.67
2019-03-28T10:51:17.458Z,6.70
2019-03-28T10:56:34.360Z,6.17
2019-03-28T11:01:51.106Z,6.73
2019-03-28T11:07:08.290Z,5.77
2019-03-28T11:12:25.225Z,7.23
2019-03-28T11:17:41.831Z,8.00
2019-03-28T11:22:58.437Z,4.90
2019-03-28T11:28:15.753Z,3.50
2019-03-28T11:33:32.395Z,4.50
2019-03-28T11:38:49.239Z,4.57
2019-03-28T11:44:05.981Z,5.03
2019-03-28T11:49:22.827Z,4.50
2019-03-28T11:54:39.523Z,7.37
2019-03-28T11:59:57.970Z,6.57
2019-03-28T12:05:14.610Z,6.33
2019-03-28T12:10:31.011Z,5.43
2019-03-28T12:15:47.726Z,7.20
2019-03-28T12:21:04.281Z,4.20
2019-03-28T12:26:20.853Z,3.03
2019-03-28T12:31:37.594Z,3.27
2019-03-28T12:36:54.208Z,6.70
2019-03-28T12:42:10.871Z,3.23
2019-03-28T12:47:41.217Z,4.93
2019-03-28T12:52:46.284Z,4.40
2019-03-28T12:58:02.795Z,3.20
2019-03-28T13:03:19.593Z,4.00
2019-03-28T13:08:36.067Z,3.83
2019-03-28T13:13:52.594Z,4.67
2019-03-28T13:19:09.287Z,3.97
2019-03-28T13:24:25.823Z,5.37
2019-03-28T13:29:42.310Z,3.37
2019-03-28T13:34:58.752Z,5.00
2019-03-28T13:40:15.924Z,8.23
2019-03-28T13:45:32.597Z,5.40
2019-03-28T13:50:49.391Z,3.37
2019-03-28T13:56:05.645Z,4.77
2019-03-28T14:01:22.652Z,5.13
2019-03-28T14:06:39.691Z,3.70
2019-03-28T14:11:56.599Z,2.87
2019-03-28T14:17:13.586Z,2.17
2019-03-28T14:22:30.134Z,1.83
2019-03-28T14:27:46.746Z,2.00
2019-03-28T14:33:11.484Z,2.33
2019-03-28T14:38:24.644Z,2.87
2019-03-28T14:43:42.258Z,5.37
2019-03-28T14:49:01.764Z,2.17
2019-03-28T14:54:18.242Z,2.20
2019-03-28T14:59:35.763Z,1.20
2019-03-28T15:04:52.783Z,1.33
2019-03-28T15:10:09.650Z,1.20
2019-03-28T15:15:26.631Z,3.07
2019-03-28T15:20:43.401Z,1.77
2019-03-28T15:25:59.970Z,2.50
2019-03-28T15:31:16.872Z,1.90
2019-03-28T15:36:33.224Z,1.87
2019-03-28T15:41:52.867Z,3.20
2019-03-28T15:47:09.675Z,4.60
2019-03-28T15:52:27.567Z,3.40
2019-03-28T15:57:44.302Z,3.73
2019-03-28T16:03:01.215Z,2.57
2019-03-28T16:08:18.076Z,2.17
2019-03-28T16:13:37.881Z,1.93
2019-03-28T16:18:55.005Z,2.37
2019-03-28T16:24:11.708Z,2.03
2019-03-28T16:29:28.169Z,1.40
2019-03-28T16:34:45.133Z,1.50
2019-03-28T16:40:05.953Z,3.10
2019-03-28T16:45:29.599Z,3.23
2019-03-28T16:50:46.291Z,3.17
2019-03-28T16:56:03.096Z,1.50
2019-03-28T17:01:19.828Z,4.30
2019-03-28T17:06:36.500Z,2.07
2019-03-28T17:11:53.036Z,2.43
2019-03-28T17:17:09.845Z,1.30
2019-03-28T17:22:26.703Z,2.67
2019-03-28T17:27:46.459Z,4.60
2019-03-28T17:33:03.643Z,1.80
2019-03-28T17:38:20.243Z,1.20
2019-03-28T17:43:36.884Z,1.10
2019-03-28T17:48:53.640Z,3.73
2019-03-28T17:54:11.820Z,1.97
2019-03-28T17:59:28.894Z,1.60
2019-03-28T18:04:48.168Z,2.20
2019-03-28T18:10:04.879Z,1.27
2019-03-28T18:15:21.869Z,1.10
2019-03-28T18:20:38.475Z,3.33
2019-03-28T18:25:55.061Z,1.67
2019-03-28T18:31:11.934Z,2.13
2019-03-28T18:36:28.412Z,3.07
2019-03-28T18:41:45.491Z,3.70
2019-03-28T18:47:02.284Z,3.27
2019-03-28T18:52:18.841Z,3.13
2019-03-28T18:57:35.462Z,3.60
2019-03-28T19:02:51.947Z,2.63
2019-03-28T19:08:08.986Z,3.67
2019-03-28T19:13:25.897Z,1.70
2019-03-28T19:18:42.952Z,4.57
2019-03-28T19:23:59.976Z,2.80
2019-03-28T19:29:16.994Z,2.60
2019-03-28T19:34:34.037Z,1.73
2019-03-28T19:39:54.440Z,2.37
2019-03-28T19:45:16.872Z,2.13
2019-03-28T19:50:33.504Z,2.20
2019-03-28T19:55:50.121Z,3.27
2019-03-28T20:01:07.285Z,3.70
2019-03-28T20:06:24.423Z,1.83
2019-03-28T20:11:42.246Z,2.47
2019-03-28T20:16:59.134Z,1.70
2019-03-28T20:22:19.099Z,3.10
2019-03-28T20:27:35.698Z,2.60
2019-03-28T20:32:53.898Z,4.50
2019-03-28T20:38:10.444Z,2.53
2019-03-28T20:43:27.606Z,3.97
2019-03-28T20:48:47.091Z,3.60
2019-03-28T20:54:07.794Z,2.87
2019-03-28T20:59:24.940Z,2.83
2019-03-28T21:04:43.445Z,3.83
2019-03-28T21:10:05.315Z,4.50
2019-03-28T21:15:23.154Z,2.83
2019-03-28T21:20:39.880Z,2.60
2019-03-28T21:25:56.939Z,3.47
2019-03-28T21:31:14.083Z,3.60
2019-03-28T21:36:32.177Z,2.97
2019-03-28T21:41:49.137Z,2.97
2019-03-28T21:47:05.823Z,4.90
2019-03-28T21:52:22.629Z,2.97
2019-03-28T21:57:43.575Z,3.83
2019-03-28T22:03:00.048Z,3.40
2019-03-28T22:08:16.419Z,3.27
2019-03-28T22:13:33.391Z,3.73
2019-03-28T22:18:55.273Z,4.33
2019-03-28T22:24:12.841Z,2.87
2019-03-28T22:29:29.942Z,3.63
2019-03-28T22:34:46.611Z,3.63
2019-03-28T22:40:14.397Z,3.43
2019-03-28T22:45:32.233Z,3.40
2019-03-28T22:50:50.927Z,4.70
2019-03-28T22:56:09.645Z,3.27
2019-03-28T23:01:26.222Z,5.37
2019-03-28T23:06:42.963Z,3.47
2019-03-28T23:11:59.850Z,4.27
2019-03-28T23:17:19.458Z,4.43
2019-03-28T23:22:41.065Z,4.00
2019-03-28T23:27:57.773Z,3.10
2019-03-28T23:33:21.944Z,2.57
2019-03-28T23:38:39.778Z,2.13
2019-03-28T23:44:02.252Z,2.27
2019-03-28T23:49:24.488Z,2.43
2019-03-28T23:54:41.093Z,2.27
2019-03-28T23:59:57.755Z,2.40
